createdAt,value
2017-11-18T00:00:32.437Z,1015.54
2017-11-18T00:01:32.416Z,1015.51
2017-11-18T00:02:32.396Z,1015.5
2017-11-18T00:03:32.377Z,1015.48
2017-11-18T00:04:32.355Z,1015.46
2017-11-18T00:05:32.334Z,1015.45
2017-11-18T00:06:32.314Z,1015.46
2017-11-18T00:07:32.291Z,1015.37
2017-11-18T00:08:32.270Z,1015.41
2017-11-18T00:09:32.250Z,1015.39
2017-11-18T00:10:32.230Z,1015.39
2017-11-18T00:11:32.207Z,1015.42
2017-11-18T00:12:32.191Z,1015.4
2017-11-18T00:13:32.170Z,1015.44
2017-11-18T00:14:32.145Z,1015.45
2017-11-18T00:15:32.135Z,1015.4
2017-11-18T00:16:32.106Z,1015.38
2017-11-18T00:17:32.083Z,1015.37
2017-11-18T00:18:32.063Z,1015.39
2017-11-18T00:19:32.045Z,1015.36
2017-11-18T00:20:32.022Z,1015.38
2017-11-18T00:21:32.003Z,1015.3
2017-11-18T00:22:31.978Z,1015.36
2017-11-18T00:23:31.957Z,1015.31
2017-11-18T00:24:31.937Z,1015.34
2017-11-18T00:25:31.915Z,1015.29
2017-11-18T00:26:31.896Z,1015.3
2017-11-18T00:27:31.873Z,1015.29
2017-11-18T00:28:31.855Z,1015.3
2017-11-18T00:29:31.831Z,1015.34
2017-11-18T00:30:31.816Z,1015.33
2017-11-18T00:31:31.802Z,1015.35
2017-11-18T00:32:31.769Z,1015.3
2017-11-18T00:33:31.750Z,1015.35
2017-11-18T00:34:31.725Z,1015.34
2017-11-18T00:35:31.707Z,1015.36
2017-11-18T00:36:31.690Z,1015.32
2017-11-18T00:37:31.665Z,1015.37
2017-11-18T00:38:31.642Z,1015.34
2017-11-18T00:39:31.621Z,1015.32
2017-11-18T00:40:31.600Z,1015.34
2017-11-18T00:41:31.579Z,1015.34
2017-11-18T00:42:31.560Z,1015.37
2017-11-18T00:43:31.537Z,1015.31
2017-11-18T00:44:31.518Z,1015.32
2017-11-18T00:45:31.504Z,1015.3
2017-11-18T00:46:31.476Z,1015.28
2017-11-18T00:47:31.455Z,1015.29
2017-11-18T00:48:31.431Z,1015.37
2017-11-18T00:49:31.410Z,1015.35
2017-11-18T00:50:31.389Z,1015.34
2017-11-18T00:51:31.368Z,1015.31
2017-11-18T00:52:31.347Z,1015.35
2017-11-18T00:53:31.325Z,1015.3
2017-11-18T00:54:31.311Z,1015.35
2017-11-18T00:55:31.287Z,1015.33
2017-11-18T00:56:31.262Z,1015.32
2017-11-18T00:57:31.247Z,1015.3
2017-11-18T00:58:31.224Z,1015.3
2017-11-18T00:59:31.212Z,1015.3
2017-11-18T01:00:31.176Z,1015.26
2017-11-18T01:01:31.157Z,1015.27
2017-11-18T01:02:31.133Z,1015.26
2017-11-18T01:03:31.112Z,1015.25
2017-11-18T01:04:31.096Z,1015.23
2017-11-18T01:05:31.069Z,1015.19
2017-11-18T01:06:31.055Z,1015.2
2017-11-18T01:07:31.026Z,1015.2
2017-11-18T01:08:31.009Z,1015.24
2017-11-18T01:09:30.989Z,1015.22
2017-11-18T01:10:30.964Z,1015.2
2017-11-18T01:11:30.943Z,1015.2
2017-11-18T01:12:30.921Z,1015.18
2017-11-18T01:13:30.899Z,1015.15
2017-11-18T01:14:30.878Z,1015.13
2017-11-18T01:15:30.858Z,1015.11
2017-11-18T01:16:30.834Z,1015.07
2017-11-18T01:17:30.815Z,1015.05
2017-11-18T01:18:30.793Z,1015.02
2017-11-18T01:19:30.771Z,1015.03
2017-11-18T01:20:30.750Z,1014.99
2017-11-18T01:21:30.727Z,1014.98
2017-11-18T01:22:30.705Z,1014.98
2017-11-18T01:23:30.685Z,1014.93
2017-11-18T01:24:30.664Z,1014.9
2017-11-18T01:25:30.641Z,1014.91
2017-11-18T01:26:30.619Z,1014.91
2017-11-18T01:27:30.608Z,1014.95
2017-11-18T01:28:30.576Z,1014.94
2017-11-18T01:29:30.555Z,1014.96
2017-11-18T01:30:30.535Z,1014.92
2017-11-18T01:31:30.513Z,1014.9
2017-11-18T01:32:30.493Z,1014.88
2017-11-18T01:33:30.475Z,1014.9
2017-11-18T01:34:30.450Z,1014.86
2017-11-18T01:35:30.427Z,1014.86
2017-11-18T01:36:30.408Z,1014.83
2017-11-18T01:37:30.383Z,1014.79
2017-11-18T01:38:30.363Z,1014.76
2017-11-18T01:39:30.340Z,1014.68
2017-11-18T01:40:30.318Z,1014.68
2017-11-18T01:41:30.298Z,1014.66
2017-11-18T01:42:30.277Z,1014.63
2017-11-18T01:43:30.254Z,1014.63
2017-11-18T01:44:30.233Z,1014.61
2017-11-18T01:45:30.212Z,1014.56
2017-11-18T01:46:30.190Z,1014.55
2017-11-18T01:47:30.169Z,1014.57
2017-11-18T01:48:30.147Z,1014.56
2017-11-18T01:49:30.125Z,1014.56
2017-11-18T01:50:30.106Z,1014.53
2017-11-18T01:51:30.084Z,1014.52
2017-11-18T01:52:30.063Z,1014.56
2017-11-18T01:53:30.039Z,1014.56
2017-11-18T01:54:30.018Z,1014.57
2017-11-18T01:55:30.004Z,1014.52
2017-11-18T01:56:29.985Z,1014.53
2017-11-18T01:57:29.955Z,1014.57
2017-11-18T01:58:29.932Z,1014.51
2017-11-18T01:59:30.115Z,1014.49
2017-11-18T02:00:29.890Z,1014.47
2017-11-18T02:01:29.867Z,1014.48
2017-11-18T02:02:29.849Z,1014.45
2017-11-18T02:03:29.825Z,1014.45
2017-11-18T02:04:29.804Z,1014.43
2017-11-18T02:05:29.783Z,1014.4
2017-11-18T02:06:29.761Z,1014.36
2017-11-18T02:07:29.744Z,1014.41
2017-11-18T02:08:29.720Z,1014.34
2017-11-18T02:09:29.699Z,1014.3
2017-11-18T02:10:29.677Z,1014.33
2017-11-18T02:11:29.655Z,1014.29
2017-11-18T02:12:29.636Z,1014.23
2017-11-18T02:13:29.616Z,1014.21
2017-11-18T02:14:29.593Z,1014.2
2017-11-18T02:15:29.571Z,1014.25
2017-11-18T02:16:29.550Z,1014.21
2017-11-18T02:17:29.529Z,1014.17
2017-11-18T02:18:29.510Z,1014.18
2017-11-18T02:19:29.487Z,1014.11
2017-11-18T02:20:29.469Z,1014.11
2017-11-18T02:21:29.445Z,1014.06
2017-11-18T02:22:29.425Z,1014.02
2017-11-18T02:23:29.403Z,1014.03
2017-11-18T02:24:29.386Z,1014.03
2017-11-18T02:25:29.361Z,1014
2017-11-18T02:26:29.340Z,1014.05
2017-11-18T02:27:29.318Z,1013.99
2017-11-18T02:28:29.304Z,1013.99
2017-11-18T02:29:29.277Z,1013.94
2017-11-18T02:30:29.256Z,1013.9
2017-11-18T02:31:29.237Z,1013.86
2017-11-18T02:32:29.214Z,1013.83
2017-11-18T02:33:29.192Z,1013.86
2017-11-18T02:34:29.172Z,1013.81
2017-11-18T02:35:29.154Z,1013.75
2017-11-18T02:36:29.131Z,1013.81
2017-11-18T02:37:29.111Z,1013.74
2017-11-18T02:38:29.090Z,1013.76
2017-11-18T02:39:29.071Z,1013.77
2017-11-18T02:40:29.045Z,1013.74
2017-11-18T02:41:29.028Z,1013.77
2017-11-18T02:42:29.005Z,1013.7
2017-11-18T02:43:28.985Z,1013.68
2017-11-18T02:44:28.976Z,1013.64
2017-11-18T02:45:28.941Z,1013.67
2017-11-18T02:46:28.922Z,1013.65
2017-11-18T02:47:28.901Z,1013.66
2017-11-18T02:48:28.881Z,1013.68
2017-11-18T02:49:28.859Z,1013.64
2017-11-18T02:50:28.843Z,1013.65
2017-11-18T02:51:28.826Z,1013.67
2017-11-18T02:52:28.797Z,1013.66
2017-11-18T02:53:28.781Z,1013.66
2017-11-18T02:54:28.755Z,1013.7
2017-11-18T02:55:28.732Z,1013.66
2017-11-18T02:56:28.716Z,1013.67
2017-11-18T02:57:28.691Z,1013.68
2017-11-18T02:58:28.671Z,1013.66
2017-11-18T02:59:28.649Z,1013.61
2017-11-18T03:00:28.630Z,1013.7
2017-11-18T03:01:28.611Z,1013.66
2017-11-18T03:02:28.588Z,1013.66
2017-11-18T03:03:28.566Z,1013.64
2017-11-18T03:04:28.550Z,1013.62
2017-11-18T03:05:28.526Z,1013.59
2017-11-18T03:06:28.508Z,1013.6
2017-11-18T03:07:28.484Z,1013.63
2017-11-18T03:08:28.462Z,1013.6
2017-11-18T03:09:28.442Z,1013.62
2017-11-18T03:10:28.434Z,1013.62
2017-11-18T03:11:28.399Z,1013.61
2017-11-18T03:12:28.380Z,1013.6
2017-11-18T03:13:28.362Z,1013.58
2017-11-18T03:14:28.341Z,1013.5
2017-11-18T03:15:28.316Z,1013.53
2017-11-18T03:16:28.297Z,1013.44
2017-11-18T03:17:28.279Z,1013.45
2017-11-18T03:18:28.256Z,1013.41
2017-11-18T03:19:28.235Z,1013.42
2017-11-18T03:20:28.215Z,1013.45
2017-11-18T03:21:28.196Z,1013.42
2017-11-18T03:22:28.172Z,1013.36
2017-11-18T03:23:28.152Z,1013.31
2017-11-18T03:24:28.132Z,1013.31
2017-11-18T03:25:28.110Z,1013.37
2017-11-18T03:26:28.091Z,1013.33
2017-11-18T03:27:28.069Z,1013.31
2017-11-18T03:28:28.048Z,1013.32
2017-11-18T03:29:28.028Z,1013.29
2017-11-18T03:30:28.012Z,1013.31
2017-11-18T03:31:27.986Z,1013.29
2017-11-18T03:32:27.968Z,1013.32
2017-11-18T03:33:27.945Z,1013.33
2017-11-18T03:34:27.927Z,1013.28
2017-11-18T03:35:27.904Z,1013.3
2017-11-18T03:36:27.887Z,1013.29
2017-11-18T03:37:27.862Z,1013.32
2017-11-18T03:38:27.842Z,1013.27
2017-11-18T03:39:27.829Z,1013.3
2017-11-18T03:40:27.799Z,1013.29
2017-11-18T03:41:27.780Z,1013.25
2017-11-18T03:42:27.764Z,1013.26
2017-11-18T03:43:27.738Z,1013.27
2017-11-18T03:44:27.719Z,1013.28
2017-11-18T03:45:27.698Z,1013.28
2017-11-18T03:46:27.677Z,1013.3
2017-11-18T03:47:27.657Z,1013.25
2017-11-18T03:48:27.637Z,1013.23
2017-11-18T03:49:27.616Z,1013.22
2017-11-18T03:50:27.595Z,1013.17
2017-11-18T03:51:27.574Z,1013.22
2017-11-18T03:52:27.556Z,1013.22
2017-11-18T03:53:27.534Z,1013.22
2017-11-18T03:54:27.513Z,1013.19
2017-11-18T03:55:27.493Z,1013.13
2017-11-18T03:56:27.473Z,1013.15
2017-11-18T03:57:27.450Z,1013.14
2017-11-18T03:58:27.429Z,1013.11
2017-11-18T03:59:27.613Z,1013.1
2017-11-18T04:00:27.389Z,1013.08
2017-11-18T04:01:27.368Z,1013.06
2017-11-18T04:02:27.349Z,1013
2017-11-18T04:03:27.331Z,1012.98
2017-11-18T04:04:27.307Z,1012.96
2017-11-18T04:05:27.287Z,1013
2017-11-18T04:06:27.266Z,1012.98
2017-11-18T04:07:27.247Z,1012.96
2017-11-18T04:08:27.226Z,1012.97
2017-11-18T04:09:27.211Z,1012.95
2017-11-18T04:10:27.186Z,1012.93
2017-11-18T04:11:27.164Z,1012.92
2017-11-18T04:12:27.173Z,1012.88
2017-11-18T04:13:27.124Z,1012.92
2017-11-18T04:14:27.101Z,1012.9
2017-11-18T04:15:27.083Z,1012.85
2017-11-18T04:16:27.059Z,1012.84
2017-11-18T04:17:27.042Z,1012.8
2017-11-18T04:18:27.022Z,1012.84
2017-11-18T04:19:27.000Z,1012.85
2017-11-18T04:20:26.979Z,1012.81
2017-11-18T04:21:26.960Z,1012.81
2017-11-18T04:22:26.937Z,1012.76
2017-11-18T04:23:26.916Z,1012.79
2017-11-18T04:24:26.895Z,1012.78
2017-11-18T04:25:26.874Z,1012.79
2017-11-18T04:26:26.852Z,1012.79
2017-11-18T04:27:26.832Z,1012.78
2017-11-18T04:28:26.814Z,1012.74
2017-11-18T04:29:26.792Z,1012.69
2017-11-18T04:30:26.770Z,1012.65
2017-11-18T04:31:26.753Z,1012.71
2017-11-18T04:32:26.731Z,1012.69
2017-11-18T04:33:26.707Z,1012.69
2017-11-18T04:34:26.687Z,1012.7
2017-11-18T04:35:26.668Z,1012.74
2017-11-18T04:36:26.647Z,1012.68
2017-11-18T04:37:26.626Z,1012.62
2017-11-18T04:38:26.610Z,1012.62
2017-11-18T04:39:26.587Z,1012.6
2017-11-18T04:40:26.564Z,1012.62
2017-11-18T04:41:26.547Z,1012.58
2017-11-18T04:42:26.522Z,1012.64
2017-11-18T04:43:26.508Z,1012.62
2017-11-18T04:44:26.481Z,1012.56
2017-11-18T04:45:26.459Z,1012.61
2017-11-18T04:46:26.439Z,1012.59
2017-11-18T04:47:26.420Z,1012.61
2017-11-18T04:48:26.403Z,1012.56
2017-11-18T04:49:26.378Z,1012.55
2017-11-18T04:50:26.358Z,1012.49
2017-11-18T04:51:26.338Z,1012.48
2017-11-18T04:52:26.315Z,1012.44
2017-11-18T04:53:26.296Z,1012.45
2017-11-18T04:54:26.273Z,1012.41
2017-11-18T04:55:26.254Z,1012.42
2017-11-18T04:56:26.238Z,1012.39
2017-11-18T04:57:26.211Z,1012.36
2017-11-18T04:58:26.241Z,1012.36
2017-11-18T04:59:26.173Z,1012.33
2017-11-18T05:00:26.148Z,1012.28
2017-11-18T05:01:26.131Z,1012.29
2017-11-18T05:02:26.108Z,1012.3
2017-11-18T05:03:26.148Z,1012.26
2017-11-18T05:04:26.068Z,1012.29
2017-11-18T05:05:26.045Z,1012.22
2017-11-18T05:06:26.029Z,1012.25
2017-11-18T05:07:26.005Z,1012.2
2017-11-18T05:08:25.983Z,1012.23
2017-11-18T05:09:25.964Z,1012.22
2017-11-18T05:10:25.947Z,1012.18
2017-11-18T05:11:25.924Z,1012.21
2017-11-18T05:12:25.903Z,1012.16
2017-11-18T05:13:25.880Z,1012.15
2017-11-18T05:14:25.859Z,1012.09
2017-11-18T05:15:25.838Z,1012.1
2017-11-18T05:16:25.824Z,1012.06
2017-11-18T05:17:25.797Z,1012.07
2017-11-18T05:18:25.779Z,1012.02
2017-11-18T05:19:25.757Z,1011.98
2017-11-18T05:20:25.737Z,1012.05
2017-11-18T05:21:25.718Z,1011.99
2017-11-18T05:22:25.694Z,1011.97
2017-11-18T05:23:25.674Z,1012
2017-11-18T05:24:25.654Z,1012
2017-11-18T05:25:25.632Z,1012.05
2017-11-18T05:26:25.610Z,1012.03
2017-11-18T05:27:25.593Z,1012.05
2017-11-18T05:28:25.569Z,1012.03
2017-11-18T05:29:25.550Z,1012.05
2017-11-18T05:30:25.530Z,1012.03
2017-11-18T05:31:25.509Z,1012.02
2017-11-18T05:32:25.488Z,1012
2017-11-18T05:33:25.466Z,1011.99
2017-11-18T05:34:25.447Z,1012
2017-11-18T05:35:25.427Z,1012.03
2017-11-18T05:36:25.405Z,1012
2017-11-18T05:37:25.386Z,1011.95
2017-11-18T05:38:25.364Z,1012
2017-11-18T05:39:25.342Z,1011.93
2017-11-18T05:40:25.324Z,1011.99
2017-11-18T05:41:25.301Z,1011.92
2017-11-18T05:42:25.282Z,1011.95
2017-11-18T05:43:25.263Z,1011.93
2017-11-18T05:44:25.239Z,1011.88
2017-11-18T05:45:25.221Z,1011.89
2017-11-18T05:46:25.200Z,1011.87
2017-11-18T05:47:25.180Z,1011.89
2017-11-18T05:48:25.157Z,1011.85
2017-11-18T05:49:25.141Z,1011.87
2017-11-18T05:50:25.115Z,1011.85
2017-11-18T05:51:25.094Z,1011.85
2017-11-18T05:52:25.076Z,1011.85
2017-11-18T05:53:25.056Z,1011.8
2017-11-18T05:54:25.034Z,1011.82
2017-11-18T05:55:25.014Z,1011.83
2017-11-18T05:56:24.993Z,1011.82
2017-11-18T05:57:24.978Z,1011.84
2017-11-18T05:58:24.953Z,1011.78
2017-11-18T05:59:24.942Z,1011.78
2017-11-18T06:00:24.912Z,1011.76
2017-11-18T06:01:24.890Z,1011.73
2017-11-18T06:02:24.870Z,1011.74
2017-11-18T06:03:24.850Z,1011.71
2017-11-18T06:04:24.829Z,1011.64
2017-11-18T06:05:24.807Z,1011.69
2017-11-18T06:06:24.788Z,1011.72
2017-11-18T06:07:24.767Z,1011.7
2017-11-18T06:08:24.746Z,1011.67
2017-11-18T06:09:24.728Z,1011.72
2017-11-18T06:10:24.707Z,1011.72
2017-11-18T06:11:24.688Z,1011.67
2017-11-18T06:12:24.665Z,1011.7
2017-11-18T06:13:24.645Z,1011.67
2017-11-18T06:14:24.621Z,1011.69
2017-11-18T06:15:24.608Z,1011.63
2017-11-18T06:16:24.580Z,1011.62
2017-11-18T06:17:24.563Z,1011.57
2017-11-18T06:18:24.546Z,1011.6
2017-11-18T06:19:24.522Z,1011.53
2017-11-18T06:20:24.511Z,1011.54
2017-11-18T06:21:24.479Z,1011.47
2017-11-18T06:22:24.459Z,1011.42
2017-11-18T06:23:24.439Z,1011.47
2017-11-18T06:24:24.421Z,1011.4
2017-11-18T06:25:24.398Z,1011.35
2017-11-18T06:26:24.378Z,1011.42
2017-11-18T06:27:24.353Z,1011.47
2017-11-18T06:28:24.336Z,1011.45
2017-11-18T06:29:24.316Z,1011.38
2017-11-18T06:30:24.298Z,1011.43
2017-11-18T06:31:24.275Z,1011.4
2017-11-18T06:32:24.253Z,1011.4
2017-11-18T06:33:24.232Z,1011.37
2017-11-18T06:34:24.221Z,1011.4
2017-11-18T06:35:24.190Z,1011.4
2017-11-18T06:36:24.168Z,1011.39
2017-11-18T06:37:24.149Z,1011.43
2017-11-18T06:38:24.127Z,1011.44
2017-11-18T06:39:24.108Z,1011.35
2017-11-18T06:40:24.088Z,1011.3
2017-11-18T06:41:24.066Z,1011.3
2017-11-18T06:42:24.048Z,1011.36
2017-11-18T06:43:24.025Z,1011.33
2017-11-18T06:44:24.012Z,1011.33
2017-11-18T06:45:23.984Z,1011.33
2017-11-18T06:46:23.963Z,1011.33
2017-11-18T06:47:23.947Z,1011.35
2017-11-18T06:48:23.935Z,1011.35
2017-11-18T06:49:23.905Z,1011.3
2017-11-18T06:50:23.884Z,1011.3
2017-11-18T06:51:23.866Z,1011.33
2017-11-18T06:52:23.840Z,1011.26
2017-11-18T06:53:23.820Z,1011.37
2017-11-18T06:54:23.808Z,1011.36
2017-11-18T06:55:23.781Z,1011.38
2017-11-18T06:56:23.759Z,1011.44
2017-11-18T06:57:23.740Z,1011.43
2017-11-18T06:58:23.719Z,1011.41
2017-11-18T06:59:23.701Z,1011.45
2017-11-18T07:00:23.677Z,1011.41
2017-11-18T07:01:23.660Z,1011.39
2017-11-18T07:02:23.636Z,1011.39
2017-11-18T07:03:23.616Z,1011.41
2017-11-18T07:04:23.597Z,1011.47
2017-11-18T07:05:23.574Z,1011.49
2017-11-18T07:06:23.571Z,1011.51
2017-11-18T07:07:23.535Z,1011.46
2017-11-18T07:08:23.521Z,1011.45
2017-11-18T07:09:23.492Z,1011.46
2017-11-18T07:10:23.474Z,1011.49
2017-11-18T07:11:23.458Z,1011.46
2017-11-18T07:12:23.431Z,1011.48
2017-11-18T07:13:23.411Z,1011.5
2017-11-18T07:14:23.391Z,1011.43
2017-11-18T07:15:23.371Z,1011.43
2017-11-18T07:16:23.353Z,1011.53
2017-11-18T07:17:23.337Z,1011.47
2017-11-18T07:18:23.310Z,1011.41
2017-11-18T07:19:23.289Z,1011.42
2017-11-18T07:20:23.274Z,1011.45
2017-11-18T07:21:23.248Z,1011.43
2017-11-18T07:22:23.226Z,1011.47
2017-11-18T07:23:23.205Z,1011.48
2017-11-18T07:24:23.185Z,1011.5
2017-11-18T07:25:23.164Z,1011.5
2017-11-18T07:26:23.148Z,1011.52
2017-11-18T07:27:23.124Z,1011.51
2017-11-18T07:28:23.115Z,1011.43
2017-11-18T07:29:23.087Z,1011.42
2017-11-18T07:30:23.066Z,1011.43
2017-11-18T07:31:23.044Z,1011.39
2017-11-18T07:32:23.021Z,1011.38
2017-11-18T07:33:23.000Z,1011.4
2017-11-18T07:34:22.981Z,1011.33
2017-11-18T07:35:22.961Z,1011.34
2017-11-18T07:36:22.938Z,1011.33
2017-11-18T07:37:22.924Z,1011.39
2017-11-18T07:38:22.897Z,1011.34
2017-11-18T07:39:22.879Z,1011.32
2017-11-18T07:40:22.857Z,1011.3
2017-11-18T07:41:22.838Z,1011.32
2017-11-18T07:42:22.816Z,1011.27
2017-11-18T07:43:22.795Z,1011.23
2017-11-18T07:44:22.774Z,1011.23
2017-11-18T07:45:22.755Z,1011.26
2017-11-18T07:46:22.739Z,1011.2
2017-11-18T07:47:22.714Z,1011.21
2017-11-18T07:48:22.693Z,1011.16
2017-11-18T07:49:22.673Z,1011.14
2017-11-18T07:50:22.653Z,1011.14
2017-11-18T07:51:22.631Z,1011.17
2017-11-18T07:52:22.612Z,1011.15
2017-11-18T07:53:22.589Z,1011.19
2017-11-18T07:54:22.572Z,1011.12
2017-11-18T07:55:22.548Z,1011.13
2017-11-18T07:56:22.531Z,1011.04
2017-11-18T07:57:22.509Z,1011.09
2017-11-18T07:58:22.487Z,1011.08
2017-11-18T07:59:22.466Z,1010.99
2017-11-18T08:00:22.654Z,1011.05
2017-11-18T08:01:22.426Z,1010.99
2017-11-18T08:02:22.406Z,1010.93
2017-11-18T08:03:22.387Z,1010.91
2017-11-18T08:04:22.365Z,1011
2017-11-18T08:05:22.346Z,1011.1
2017-11-18T08:06:22.325Z,1011.05
2017-11-18T08:07:22.304Z,1011.01
2017-11-18T08:08:22.284Z,1010.99
2017-11-18T08:09:22.264Z,1010.97
2017-11-18T08:10:22.247Z,1010.96
2017-11-18T08:11:22.223Z,1010.96
2017-11-18T08:12:22.201Z,1010.96
2017-11-18T08:13:22.188Z,1010.96
2017-11-18T08:14:22.161Z,1010.92
2017-11-18T08:15:22.141Z,1010.87
2017-11-18T08:16:22.127Z,1010.9
2017-11-18T08:17:22.099Z,1010.92
2017-11-18T08:18:22.079Z,1010.86
2017-11-18T08:19:22.069Z,1010.86
2017-11-18T08:20:22.038Z,1010.86
2017-11-18T08:21:22.018Z,1010.85
2017-11-18T08:22:21.997Z,1010.9
2017-11-18T08:23:21.978Z,1010.86
2017-11-18T08:24:21.959Z,1010.96
2017-11-18T08:25:21.943Z,1010.83
2017-11-18T08:26:21.920Z,1010.9
2017-11-18T08:27:21.898Z,1010.93
2017-11-18T08:28:21.877Z,1010.94
2017-11-18T08:29:21.856Z,1010.84
2017-11-18T08:30:21.836Z,1010.83
2017-11-18T08:31:21.813Z,1010.93
2017-11-18T08:32:21.793Z,1010.89
2017-11-18T08:33:21.781Z,1010.82
2017-11-18T08:34:21.754Z,1010.85
2017-11-18T08:35:21.734Z,1010.84
2017-11-18T08:36:21.713Z,1010.86
2017-11-18T08:37:21.694Z,1010.82
2017-11-18T08:38:21.673Z,1010.77
2017-11-18T08:39:21.654Z,1010.82
2017-11-18T08:40:21.636Z,1010.78
2017-11-18T08:41:21.611Z,1010.75
2017-11-18T08:42:21.591Z,1010.75
2017-11-18T08:43:21.572Z,1010.81
2017-11-18T08:44:21.553Z,1010.77
2017-11-18T08:45:21.582Z,1010.75
2017-11-18T08:46:21.511Z,1010.76
2017-11-18T08:47:21.490Z,1010.8
2017-11-18T08:48:21.471Z,1010.78
2017-11-18T08:49:21.451Z,1010.7
2017-11-18T08:50:21.429Z,1010.67
2017-11-18T08:51:21.408Z,1010.74
2017-11-18T08:52:21.390Z,1010.66
2017-11-18T08:53:21.368Z,1010.58
2017-11-18T08:54:21.348Z,1010.6
2017-11-18T08:55:21.333Z,1010.54
2017-11-18T08:56:21.308Z,1010.53
2017-11-18T08:57:21.286Z,1010.59
2017-11-18T08:58:21.272Z,1010.56
2017-11-18T08:59:21.252Z,1010.57
2017-11-18T09:00:21.228Z,1010.5
2017-11-18T09:01:21.206Z,1010.52
2017-11-18T09:02:21.190Z,1010.56
2017-11-18T09:03:21.165Z,1010.49
2017-11-18T09:04:21.154Z,1010.41
2017-11-18T09:05:21.126Z,1010.45
2017-11-18T09:06:21.106Z,1010.31
2017-11-18T09:07:21.186Z,1010.32
2017-11-18T09:08:21.064Z,1010.41
2017-11-18T09:09:21.045Z,1010.35
2017-11-18T09:10:21.023Z,1010.35
2017-11-18T09:11:21.002Z,1010.3
2017-11-18T09:12:20.985Z,1010.31
2017-11-18T09:13:20.964Z,1010.25
2017-11-18T09:14:20.945Z,1010.18
2017-11-18T09:15:20.922Z,1010.18
2017-11-18T09:16:20.902Z,1010.08
2017-11-18T09:17:20.882Z,1010.08
2017-11-18T09:18:20.861Z,1010.08
2017-11-18T09:19:20.842Z,1010.05
2017-11-18T09:20:20.821Z,1010.03
2017-11-18T09:21:20.801Z,1010.07
2017-11-18T09:22:20.780Z,1009.9
2017-11-18T09:23:20.760Z,1010
2017-11-18T09:24:20.741Z,1009.89
2017-11-18T09:25:20.722Z,1009.98
2017-11-18T09:26:20.701Z,1010.09
2017-11-18T09:27:20.683Z,1009.97
2017-11-18T09:28:20.660Z,1009.96
2017-11-18T09:29:20.641Z,1009.95
2017-11-18T09:30:20.623Z,1010.09
2017-11-18T09:31:20.599Z,1010
2017-11-18T09:32:20.580Z,1010.03
2017-11-18T09:33:20.565Z,1010.07
2017-11-18T09:34:20.539Z,1010.02
2017-11-18T09:35:20.520Z,1009.93
2017-11-18T09:36:20.501Z,1010.04
2017-11-18T09:37:20.480Z,1009.98
2017-11-18T09:38:20.461Z,1010.06
2017-11-18T09:39:20.439Z,1010.1
2017-11-18T09:40:20.424Z,1010.11
2017-11-18T09:41:20.400Z,1010.11
2017-11-18T09:42:20.380Z,1010.06
2017-11-18T09:43:20.360Z,1010.07
2017-11-18T09:44:20.338Z,1010.2
2017-11-18T09:45:20.318Z,1010.18
2017-11-18T09:46:20.300Z,1010.07
2017-11-18T09:47:20.285Z,1010.11
2017-11-18T09:48:20.257Z,1010.14
2017-11-18T09:49:20.238Z,1010.16
2017-11-18T09:50:20.222Z,1010.14
2017-11-18T09:51:20.199Z,1010.15
2017-11-18T09:52:20.178Z,1010.14
2017-11-18T09:53:20.160Z,1010.17
2017-11-18T09:54:20.143Z,1010.13
2017-11-18T09:55:20.121Z,1010.08
2017-11-18T09:56:20.101Z,1010.09
2017-11-18T09:57:20.079Z,1010.08
2017-11-18T09:58:20.059Z,1010.16
2017-11-18T09:59:20.055Z,1010.09
2017-11-18T10:00:20.222Z,1010.12
2017-11-18T10:01:20.002Z,1010.1
2017-11-18T10:02:19.980Z,1010.08
2017-11-18T10:03:19.958Z,1010.06
2017-11-18T10:04:19.943Z,1009.98
2017-11-18T10:05:19.924Z,1009.97
2017-11-18T10:06:19.899Z,1010.02
2017-11-18T10:07:19.882Z,1009.98
2017-11-18T10:08:19.861Z,1009.95
2017-11-18T10:09:19.841Z,1009.88
2017-11-18T10:10:19.821Z,1009.85
2017-11-18T10:11:19.800Z,1009.78
2017-11-18T10:12:19.780Z,1009.79
2017-11-18T10:13:19.762Z,1009.8
2017-11-18T10:14:19.741Z,1009.79
2017-11-18T10:15:19.726Z,1009.76
2017-11-18T10:16:19.702Z,1009.75
2017-11-18T10:17:19.684Z,1009.74
2017-11-18T10:18:19.662Z,1009.73
2017-11-18T10:19:19.648Z,1009.69
2017-11-18T10:20:19.622Z,1009.75
2017-11-18T10:21:19.605Z,1009.64
2017-11-18T10:22:19.584Z,1009.6
2017-11-18T10:23:19.562Z,1009.61
2017-11-18T10:24:19.541Z,1009.61
2017-11-18T10:25:19.523Z,1009.57
2017-11-18T10:26:19.502Z,1009.53
2017-11-18T10:27:19.485Z,1009.52
2017-11-18T10:28:19.461Z,1009.47
2017-11-18T10:29:19.444Z,1009.45
2017-11-18T10:30:19.423Z,1009.45
2017-11-18T10:31:19.408Z,1009.4
2017-11-18T10:32:19.383Z,1009.42
2017-11-18T10:33:19.365Z,1009.42
2017-11-18T10:34:19.350Z,1009.38
2017-11-18T10:35:19.325Z,1009.36
2017-11-18T10:36:19.311Z,1009.42
2017-11-18T10:37:19.285Z,1009.39
2017-11-18T10:38:19.266Z,1009.36
2017-11-18T10:39:19.245Z,1009.34
2017-11-18T10:40:19.228Z,1009.32
2017-11-18T10:41:19.208Z,1009.34
2017-11-18T10:42:19.188Z,1009.32
2017-11-18T10:43:19.168Z,1009.44
2017-11-18T10:44:19.147Z,1009.39
2017-11-18T10:45:19.128Z,1009.37
2017-11-18T10:46:19.110Z,1009.4
2017-11-18T10:47:19.093Z,1009.36
2017-11-18T10:48:19.068Z,1009.42
2017-11-18T10:49:19.056Z,1009.39
2017-11-18T10:50:19.035Z,1009.41
2017-11-18T10:51:19.011Z,1009.45
2017-11-18T10:52:18.993Z,1009.41
2017-11-18T10:53:18.973Z,1009.42
2017-11-18T10:54:18.954Z,1009.35
2017-11-18T10:55:18.934Z,1009.29
2017-11-18T10:56:18.914Z,1009.26
2017-11-18T10:57:18.897Z,1009.2
2017-11-18T10:58:18.874Z,1009.17
2017-11-18T10:59:18.856Z,1009.09
2017-11-18T11:00:18.836Z,1009.01
2017-11-18T11:01:18.816Z,1008.95
2017-11-18T11:02:18.804Z,1008.94
2017-11-18T11:03:18.801Z,1008.87
2017-11-18T11:04:18.763Z,1008.86
2017-11-18T11:05:18.738Z,1008.75
2017-11-18T11:06:18.719Z,1008.82
2017-11-18T11:07:18.702Z,1008.76
2017-11-18T11:08:18.686Z,1008.76
2017-11-18T11:09:18.663Z,1008.83
2017-11-18T11:10:18.642Z,1008.87
2017-11-18T11:11:18.641Z,1008.89
2017-11-18T11:12:18.606Z,1008.91
2017-11-18T11:13:18.587Z,1008.89
2017-11-18T11:14:18.568Z,1008.91
2017-11-18T11:15:18.549Z,1008.95
2017-11-18T11:16:18.528Z,1009.07
2017-11-18T11:17:18.511Z,1009.07
2017-11-18T11:18:18.493Z,1009.03
2017-11-18T11:19:18.491Z,1008.91
2017-11-18T11:20:18.456Z,1008.86
2017-11-18T11:21:18.436Z,1008.91
2017-11-18T11:22:18.416Z,1008.9
2017-11-18T11:23:18.398Z,1008.9
2017-11-18T11:24:18.377Z,1008.93
2017-11-18T11:25:18.367Z,1008.85
2017-11-18T11:26:18.340Z,1008.9
2017-11-18T11:27:18.319Z,1008.77
2017-11-18T11:28:18.302Z,1008.82
2017-11-18T11:29:18.290Z,1008.73
2017-11-18T11:30:18.261Z,1008.62
2017-11-18T11:31:18.244Z,1008.61
2017-11-18T11:32:18.226Z,1008.69
2017-11-18T11:33:18.207Z,1008.7
2017-11-18T11:34:18.189Z,1008.52
2017-11-18T11:35:18.170Z,1008.56
2017-11-18T11:36:18.154Z,1008.49
2017-11-18T11:37:18.128Z,1008.38
2017-11-18T11:38:18.116Z,1008.37
2017-11-18T11:39:18.090Z,1008.46
2017-11-18T11:40:18.071Z,1008.47
2017-11-18T11:41:18.064Z,1008.56
2017-11-18T11:42:18.038Z,1008.5
2017-11-18T11:43:18.015Z,1008.47
2017-11-18T11:44:17.997Z,1008.46
2017-11-18T11:45:17.995Z,1008.46
2017-11-18T11:46:17.966Z,1008.43
2017-11-18T11:47:17.941Z,1008.41
2017-11-18T11:48:17.923Z,1008.43
2017-11-18T11:49:17.904Z,1008.44
2017-11-18T11:50:17.888Z,1008.33
2017-11-18T11:51:17.865Z,1008.39
2017-11-18T11:52:17.853Z,1008.29
2017-11-18T11:53:17.830Z,1008.44
2017-11-18T11:54:17.812Z,1008.37
2017-11-18T11:55:17.795Z,1008.31
2017-11-18T11:56:17.775Z,1008.31
2017-11-18T11:57:17.764Z,1008.3
2017-11-18T11:58:17.748Z,1008.26
2017-11-18T11:59:17.722Z,1008.29
2017-11-18T12:00:17.907Z,1008.23
2017-11-18T12:01:17.687Z,1008.07
2017-11-18T12:02:17.677Z,1008.08
2017-11-18T12:03:17.653Z,1008.14
2017-11-18T12:04:17.636Z,1008.12
2017-11-18T12:05:17.621Z,1008.32
2017-11-18T12:06:17.606Z,1008.2
2017-11-18T12:07:17.586Z,1008.16
2017-11-18T12:08:17.571Z,1008.11
2017-11-18T12:09:17.555Z,1008.12